createdAt,value
2019-01-23T00:00:47.230Z,125.25
2019-01-23T00:01:54.084Z,125.53
2019-01-23T00:02:58.880Z,128.40
2019-01-23T00:04:03.687Z,127.95
2019-01-23T00:05:08.800Z,123.07
2019-01-23T00:06:13.744Z,138.75
2019-01-23T00:07:18.628Z,223.97
2019-01-23T00:08:23.420Z,227.82
2019-01-23T00:09:29.288Z,223.53
2019-01-23T00:10:34.338Z,259.83
2019-01-23T00:11:39.237Z,259.98
2019-01-23T00:12:44.077Z,194.72
2019-01-23T00:13:48.986Z,201.88
2019-01-23T00:14:53.767Z,214.90
2019-01-23T00:15:58.639Z,222.05
2019-01-23T00:17:03.515Z,188.57
2019-01-23T00:18:08.541Z,185.85
2019-01-23T00:19:13.449Z,179.12
2019-01-23T00:20:18.394Z,179.55
2019-01-23T00:21:23.395Z,181.52
2019-01-23T00:22:28.412Z,211.55
2019-01-23T00:23:33.172Z,210.35
2019-01-23T00:24:38.073Z,203.30
2019-01-23T00:25:43.101Z,228.60
2019-01-23T00:26:47.973Z,242.68
2019-01-23T00:27:52.813Z,209.67
2019-01-23T00:28:57.700Z,190.18
2019-01-23T00:30:02.608Z,174.18
2019-01-23T00:31:07.488Z,146.90
2019-01-23T00:32:15.499Z,144.95
2019-01-23T00:33:20.608Z,142.13
2019-01-23T00:34:25.493Z,144.05
2019-01-23T00:35:30.395Z,133.87
2019-01-23T00:36:35.392Z,139.70
2019-01-23T00:37:40.499Z,125.25
2019-01-23T00:38:45.885Z,123.55
2019-01-23T00:39:50.740Z,129.42
2019-01-23T00:40:55.497Z,115.28
2019-01-23T00:42:00.408Z,115.10
2019-01-23T00:43:05.468Z,117.55
2019-01-23T00:44:10.218Z,120.50
2019-01-23T00:45:15.324Z,110.17
2019-01-23T00:46:20.120Z,121.33
2019-01-23T00:47:25.103Z,122.05
2019-01-23T00:48:30.032Z,129.50
2019-01-23T00:49:35.029Z,116.97
2019-01-23T00:50:39.996Z,128.50
2019-01-23T00:51:45.008Z,131.70
2019-01-23T00:52:49.868Z,124.53
2019-01-23T00:53:55.417Z,126.47
2019-01-23T00:55:00.219Z,123.05
2019-01-23T00:56:05.323Z,123.95
2019-01-23T00:57:10.362Z,120.85
2019-01-23T00:58:15.279Z,120.20
2019-01-23T00:59:20.079Z,119.53
2019-01-23T01:00:26.264Z,119.08
2019-01-23T01:01:31.239Z,119.33
2019-01-23T01:02:36.063Z,122.55
2019-01-23T01:03:40.968Z,124.65
2019-01-23T01:04:45.808Z,115.10
2019-01-23T01:05:50.716Z,126.47
2019-01-23T01:06:55.662Z,113.68
2019-01-23T01:08:00.612Z,108.25
2019-01-23T01:09:09.113Z,111.75
2019-01-23T01:10:15.210Z,107.37
2019-01-23T01:11:20.890Z,115.03
2019-01-23T01:12:25.737Z,117.60
2019-01-23T01:13:30.803Z,115.97
2019-01-23T01:14:35.689Z,117.42
2019-01-23T01:15:40.548Z,122.02
2019-01-23T01:16:45.322Z,118.55
2019-01-23T01:17:50.124Z,124.40
2019-01-23T01:18:55.016Z,110.65
2019-01-23T01:19:59.900Z,114.40
2019-01-23T01:21:04.807Z,113.85
2019-01-23T01:22:09.611Z,127.40
2019-01-23T01:23:14.684Z,113.47
2019-01-23T01:24:19.427Z,121.97
2019-01-23T01:25:24.324Z,126.18
2019-01-23T01:26:29.222Z,125.75
2019-01-23T01:27:34.120Z,128.27
2019-01-23T01:28:39.067Z,120.02
2019-01-23T01:29:43.969Z,124.35
2019-01-23T01:30:48.724Z,118.72
2019-01-23T01:31:53.596Z,127.40
2019-01-23T01:32:58.500Z,125.85
2019-01-23T01:34:03.408Z,126.30
2019-01-23T01:35:08.291Z,118.45
2019-01-23T01:36:13.199Z,130.65
2019-01-23T01:37:18.051Z,125.80
2019-01-23T01:38:22.955Z,127.87
2019-01-23T01:39:27.945Z,127.87
2019-01-23T01:40:32.691Z,124.20
2019-01-23T01:41:37.628Z,127.95
2019-01-23T01:42:42.548Z,122.92
2019-01-23T01:43:47.467Z,130.20
2019-01-23T01:44:52.260Z,127.47
2019-01-23T01:45:57.052Z,118.05
2019-01-23T01:47:01.933Z,119.45
2019-01-23T01:48:07.184Z,120.57
2019-01-23T01:49:11.963Z,127.72
2019-01-23T01:50:21.281Z,113.00
2019-01-23T01:51:26.297Z,117.30
2019-01-23T01:52:32.427Z,127.00
2019-01-23T01:53:37.217Z,132.70
2019-01-23T01:54:42.088Z,129.05
2019-01-23T01:55:46.838Z,125.82
2019-01-23T01:56:54.936Z,130.95
2019-01-23T01:58:02.140Z,129.20
2019-01-23T01:59:06.963Z,120.35
2019-01-23T02:00:22.359Z,125.85
2019-01-23T02:01:27.319Z,119.35
2019-01-23T02:02:32.046Z,124.97
2019-01-23T02:03:36.902Z,123.58
2019-01-23T02:04:41.834Z,124.92
2019-01-23T02:05:46.734Z,135.52
2019-01-23T02:06:51.659Z,131.32
2019-01-23T02:07:56.539Z,132.80
2019-01-23T02:09:01.337Z,116.62
2019-01-23T02:10:08.096Z,129.65
2019-01-23T02:11:12.960Z,127.87
2019-01-23T02:12:17.696Z,128.75
2019-01-23T02:13:23.688Z,122.80
2019-01-23T02:14:28.701Z,129.87
2019-01-23T02:15:33.591Z,132.50
2019-01-23T02:16:38.321Z,137.40
2019-01-23T02:17:43.295Z,129.97
2019-01-23T02:18:48.223Z,140.75
2019-01-23T02:19:53.064Z,133.80
2019-01-23T02:20:58.277Z,128.72
2019-01-23T02:22:03.188Z,132.43
2019-01-23T02:23:08.177Z,135.50
2019-01-23T02:24:13.103Z,129.03
2019-01-23T02:25:18.325Z,125.07
2019-01-23T02:26:23.220Z,127.97
2019-01-23T02:27:27.978Z,132.22
2019-01-23T02:28:32.883Z,132.05
2019-01-23T02:29:37.814Z,134.00
2019-01-23T02:30:42.763Z,121.42
2019-01-23T02:31:47.513Z,121.95
2019-01-23T02:32:52.388Z,135.20
2019-01-23T02:33:57.364Z,127.58
2019-01-23T02:35:02.123Z,132.60
2019-01-23T02:36:07.060Z,137.05
2019-01-23T02:37:12.101Z,127.35
2019-01-23T02:38:16.980Z,130.70
2019-01-23T02:39:21.887Z,119.80
2019-01-23T02:40:26.699Z,121.42
2019-01-23T02:41:31.525Z,123.90
2019-01-23T02:42:36.308Z,126.30
2019-01-23T02:43:41.226Z,118.53
2019-01-23T02:44:46.025Z,124.53
2019-01-23T02:45:50.796Z,124.02
2019-01-23T02:46:55.692Z,123.35
2019-01-23T02:48:03.175Z,133.07
2019-01-23T02:49:08.084Z,120.50
2019-01-23T02:50:14.222Z,122.07
2019-01-23T02:51:19.081Z,131.70
2019-01-23T02:52:23.845Z,125.78
2019-01-23T02:53:29.852Z,125.70
2019-01-23T02:54:34.745Z,115.22
2019-01-23T02:55:39.649Z,118.00
2019-01-23T02:56:44.407Z,122.15
2019-01-23T02:57:49.206Z,121.85
2019-01-23T02:58:54.088Z,128.57
2019-01-23T02:59:59.000Z,127.53
2019-01-23T03:01:04.032Z,125.47
2019-01-23T03:02:08.962Z,123.58
2019-01-23T03:03:13.861Z,130.40
2019-01-23T03:04:18.756Z,126.33
2019-01-23T03:05:23.724Z,126.75
2019-01-23T03:06:28.488Z,121.95
2019-01-23T03:07:33.386Z,138.07
2019-01-23T03:08:38.294Z,131.67
2019-01-23T03:09:43.169Z,129.82
2019-01-23T03:10:47.947Z,132.30
2019-01-23T03:11:52.741Z,118.35
2019-01-23T03:12:57.597Z,123.22
2019-01-23T03:14:02.566Z,131.57
2019-01-23T03:15:09.054Z,131.72
2019-01-23T03:16:13.817Z,118.72
2019-01-23T03:17:18.560Z,123.70
2019-01-23T03:18:23.329Z,122.33
2019-01-23T03:19:28.356Z,116.40
2019-01-23T03:20:33.260Z,126.78
2019-01-23T03:21:38.012Z,139.70
2019-01-23T03:22:42.791Z,136.62
2019-01-23T03:23:47.836Z,138.52
2019-01-23T03:24:52.652Z,133.78
2019-01-23T03:25:57.408Z,127.58
2019-01-23T03:27:02.190Z,126.60
2019-01-23T03:28:07.089Z,124.02
2019-01-23T03:29:12.014Z,131.75
2019-01-23T03:30:19.278Z,125.90
2019-01-23T03:31:24.129Z,121.05
2019-01-23T03:32:29.251Z,118.17
2019-01-23T03:33:34.077Z,123.38
2019-01-23T03:34:38.905Z,125.60
2019-01-23T03:35:43.975Z,135.18
2019-01-23T03:36:48.909Z,124.15
2019-01-23T03:37:53.877Z,125.70
2019-01-23T03:38:58.632Z,120.55
2019-01-23T03:40:03.584Z,121.40
2019-01-23T03:41:08.536Z,127.17
2019-01-23T03:42:13.350Z,122.15
2019-01-23T03:43:18.128Z,121.28
2019-01-23T03:44:23.032Z,125.87
2019-01-23T03:45:27.948Z,118.53
2019-01-23T03:46:32.913Z,114.12
2019-01-23T03:47:37.833Z,112.12
2019-01-23T03:48:42.703Z,112.85
2019-01-23T03:49:47.476Z,114.12
2019-01-23T03:50:52.349Z,109.40
2019-01-23T03:51:57.236Z,114.55
2019-01-23T03:53:02.230Z,115.50
2019-01-23T03:54:07.123Z,105.80
2019-01-23T03:55:12.541Z,114.60
2019-01-23T03:56:17.400Z,111.20
2019-01-23T03:57:22.182Z,120.35
2019-01-23T03:58:27.021Z,110.35
2019-01-23T03:59:32.313Z,109.97
2019-01-23T04:00:37.336Z,107.35
2019-01-23T04:01:42.085Z,107.70
2019-01-23T04:02:48.572Z,104.00
2019-01-23T04:03:53.473Z,108.35
2019-01-23T04:04:58.367Z,105.27
2019-01-23T04:06:03.145Z,110.10
2019-01-23T04:07:08.016Z,110.63
2019-01-23T04:08:12.900Z,103.97
2019-01-23T04:09:17.788Z,113.52
2019-01-23T04:10:22.696Z,103.85
2019-01-23T04:11:27.700Z,109.65
2019-01-23T04:12:32.593Z,108.80
2019-01-23T04:13:37.342Z,104.70
2019-01-23T04:14:42.288Z,116.73
2019-01-23T04:15:47.154Z,107.90
2019-01-23T04:16:51.944Z,110.85
2019-01-23T04:17:56.853Z,107.27
2019-01-23T04:19:01.689Z,104.75
2019-01-23T04:20:10.388Z,113.42
2019-01-23T04:21:15.170Z,112.65
2019-01-23T04:22:19.904Z,112.70
2019-01-23T04:23:24.816Z,115.57
2019-01-23T04:24:29.600Z,106.78
2019-01-23T04:25:34.573Z,112.50
2019-01-23T04:26:39.353Z,113.65
2019-01-23T04:27:44.265Z,109.90
2019-01-23T04:28:49.148Z,115.88
2019-01-23T04:29:54.198Z,120.62
2019-01-23T04:30:58.940Z,118.70
2019-01-23T04:32:03.902Z,108.17
2019-01-23T04:33:08.900Z,106.22
2019-01-23T04:34:15.089Z,104.60
2019-01-23T04:35:21.364Z,104.23
2019-01-23T04:36:26.262Z,104.85
2019-01-23T04:37:31.300Z,103.67
2019-01-23T04:38:36.286Z,104.43
2019-01-23T04:39:41.046Z,109.03
2019-01-23T04:40:45.959Z,104.25
2019-01-23T04:41:50.954Z,107.90
2019-01-23T04:42:55.856Z,110.10
2019-01-23T04:44:00.652Z,106.17
2019-01-23T04:45:07.227Z,101.07
2019-01-23T04:46:11.988Z,108.12
2019-01-23T04:47:16.792Z,107.17
2019-01-23T04:48:22.727Z,98.37
2019-01-23T04:49:27.608Z,107.22
2019-01-23T04:50:34.103Z,116.15
2019-01-23T04:51:54.018Z,103.92
2019-01-23T04:53:09.442Z,114.50
2019-01-23T04:54:16.502Z,101.33
2019-01-23T04:55:21.374Z,102.00
2019-01-23T04:56:26.362Z,110.12
2019-01-23T04:57:31.268Z,106.32
2019-01-23T04:58:36.073Z,110.60
2019-01-23T04:59:46.798Z,113.60
2019-01-23T05:00:47.389Z,117.37
2019-01-23T05:01:52.257Z,119.90
2019-01-23T05:02:57.176Z,112.97
2019-01-23T05:04:02.213Z,119.10
2019-01-23T05:05:07.872Z,126.35
2019-01-23T05:06:12.828Z,125.62
2019-01-23T05:07:17.652Z,125.50
2019-01-23T05:08:22.549Z,130.10
2019-01-23T05:09:27.441Z,123.85
2019-01-23T05:10:32.332Z,130.37
2019-01-23T05:11:38.404Z,130.20
2019-01-23T05:12:45.045Z,129.25
2019-01-23T05:13:49.947Z,129.68
2019-01-23T05:14:54.732Z,125.70
2019-01-23T05:15:59.648Z,120.45
2019-01-23T05:17:06.838Z,111.92
2019-01-23T05:18:11.667Z,121.85
2019-01-23T05:19:16.431Z,123.18
2019-01-23T05:20:21.366Z,120.22
2019-01-23T05:21:26.160Z,115.37
2019-01-23T05:22:32.299Z,112.05
2019-01-23T05:23:37.175Z,119.67
2019-01-23T05:24:41.989Z,113.35
2019-01-23T05:25:49.093Z,114.45
2019-01-23T05:26:53.981Z,113.85
2019-01-23T05:27:58.944Z,117.08
2019-01-23T05:29:03.729Z,119.75
2019-01-23T05:30:12.854Z,104.55
2019-01-23T05:31:17.708Z,102.92
2019-01-23T05:32:22.714Z,109.48
2019-01-23T05:33:27.632Z,112.97
2019-01-23T05:34:32.785Z,117.45
2019-01-23T05:35:37.694Z,114.62
2019-01-23T05:36:42.583Z,118.13
2019-01-23T05:37:47.632Z,105.58
2019-01-23T05:38:52.624Z,109.48
2019-01-23T05:39:57.451Z,109.72
2019-01-23T05:41:02.344Z,110.92
2019-01-23T05:42:07.247Z,109.90
2019-01-23T05:43:12.358Z,114.22
2019-01-23T05:44:17.343Z,114.22
2019-01-23T05:45:24.953Z,116.62
2019-01-23T05:46:29.914Z,112.83
2019-01-23T05:47:34.880Z,120.00
2019-01-23T05:48:39.815Z,105.30
2019-01-23T05:49:44.720Z,104.67
2019-01-23T05:50:49.639Z,101.27
2019-01-23T05:51:54.632Z,110.03
2019-01-23T05:52:59.513Z,102.17
2019-01-23T05:54:04.729Z,99.60
2019-01-23T05:55:11.044Z,98.15
2019-01-23T05:56:15.893Z,98.85
2019-01-23T05:57:20.849Z,95.40
2019-01-23T05:58:25.843Z,97.97
2019-01-23T05:59:32.775Z,100.25
2019-01-23T06:00:37.724Z,96.40
2019-01-23T06:01:42.590Z,95.15
2019-01-23T06:02:47.619Z,96.90
2019-01-23T06:03:52.584Z,92.08
2019-01-23T06:04:57.479Z,94.77
2019-01-23T06:06:02.390Z,102.35
2019-01-23T06:07:09.961Z,100.55
2019-01-23T06:08:15.109Z,114.80
2019-01-23T06:09:20.024Z,106.70
2019-01-23T06:10:26.203Z,102.10
2019-01-23T06:11:31.096Z,97.20
2019-01-23T06:12:36.011Z,112.32
2019-01-23T06:13:41.062Z,112.10
2019-01-23T06:14:46.229Z,105.10
2019-01-23T06:15:51.183Z,106.03
2019-01-23T06:16:56.284Z,110.95
2019-01-23T06:18:01.164Z,111.83
2019-01-23T06:19:06.112Z,114.77
2019-01-23T06:20:13.609Z,106.52
2019-01-23T06:21:18.464Z,119.55
2019-01-23T06:22:23.367Z,124.35
2019-01-23T06:23:28.443Z,111.30
2019-01-23T06:24:33.539Z,125.00
2019-01-23T06:25:38.605Z,112.10
2019-01-23T06:26:43.548Z,116.47
2019-01-23T06:27:48.923Z,117.08
2019-01-23T06:28:55.282Z,114.47
2019-01-23T06:30:10.289Z,117.70
2019-01-23T06:31:15.196Z,119.97
2019-01-23T06:32:23.524Z,126.45
2019-01-23T06:33:33.367Z,125.00
2019-01-23T06:34:41.677Z,129.68
2019-01-23T06:35:53.277Z,123.15
2019-01-23T06:36:58.201Z,132.80
2019-01-23T06:38:02.976Z,130.75
2019-01-23T06:39:09.579Z,120.85
2019-01-23T06:40:15.123Z,124.87
2019-01-23T06:41:20.055Z,138.18
2019-01-23T06:42:24.892Z,133.95
2019-01-23T06:43:29.985Z,143.05
2019-01-23T06:44:35.170Z,134.12
2019-01-23T06:45:40.236Z,138.95
2019-01-23T06:46:45.224Z,138.65
2019-01-23T06:47:50.812Z,147.37
2019-01-23T06:48:56.861Z,133.78
2019-01-23T06:50:02.412Z,124.45
2019-01-23T06:51:07.505Z,139.60
2019-01-23T06:52:12.708Z,130.60
2019-01-23T06:53:18.094Z,137.05
2019-01-23T06:54:30.406Z,142.28
2019-01-23T06:55:36.741Z,134.35
2019-01-23T06:56:41.808Z,129.85
2019-01-23T06:57:46.897Z,136.03
2019-01-23T06:58:52.047Z,130.57
2019-01-23T06:59:57.367Z,120.17
2019-01-23T07:01:02.755Z,125.95
2019-01-23T07:02:08.602Z,120.85
2019-01-23T07:03:14.173Z,130.63
2019-01-23T07:04:19.699Z,124.55
2019-01-23T07:05:25.559Z,134.78
2019-01-23T07:06:32.456Z,140.82
2019-01-23T07:07:37.438Z,135.32
2019-01-23T07:08:42.757Z,140.00
2019-01-23T07:09:49.023Z,144.82
2019-01-23T07:10:56.362Z,131.32
2019-01-23T07:12:01.291Z,131.27
2019-01-23T07:13:06.282Z,140.65
2019-01-23T07:14:11.186Z,143.15
2019-01-23T07:15:16.405Z,144.87
2019-01-23T07:16:21.316Z,138.12
2019-01-23T07:17:28.395Z,135.90
2019-01-23T07:18:33.455Z,128.95
2019-01-23T07:19:38.328Z,150.35
2019-01-23T07:20:43.377Z,150.42
2019-01-23T07:21:48.395Z,136.97
2019-01-23T07:22:53.521Z,133.25
2019-01-23T07:23:58.601Z,143.50
2019-01-23T07:25:03.628Z,148.97
2019-01-23T07:26:08.820Z,132.60
2019-01-23T07:27:13.806Z,139.10
2019-01-23T07:28:18.937Z,140.65
2019-01-23T07:29:23.935Z,124.05
2019-01-23T07:30:40.623Z,130.57
2019-01-23T07:31:45.407Z,136.62
2019-01-23T07:32:51.731Z,142.77
2019-01-23T07:33:56.809Z,139.75
2019-01-23T07:35:01.853Z,141.15
2019-01-23T07:36:07.199Z,138.55
2019-01-23T07:37:12.274Z,140.68
2019-01-23T07:38:20.149Z,134.80
2019-01-23T07:39:25.635Z,144.90
2019-01-23T07:40:30.846Z,136.82
2019-01-23T07:41:35.875Z,135.03
2019-01-23T07:42:40.758Z,124.40
2019-01-23T07:43:45.649Z,124.20
2019-01-23T07:44:55.163Z,126.07
2019-01-23T07:46:00.560Z,127.35
2019-01-23T07:47:05.904Z,132.52
2019-01-23T07:48:10.865Z,126.22
2019-01-23T07:49:15.791Z,132.87
2019-01-23T07:50:21.087Z,119.65
2019-01-23T07:51:26.056Z,125.40
2019-01-23T07:52:33.596Z,119.05
2019-01-23T07:53:40.071Z,122.53
2019-01-23T07:54:45.826Z,109.97
2019-01-23T07:55:50.823Z,119.17
2019-01-23T07:56:55.876Z,120.00
2019-01-23T07:58:01.607Z,125.92
2019-01-23T07:59:06.757Z,121.33
2019-01-23T08:00:14.965Z,131.65
2019-01-23T08:01:21.806Z,124.75
2019-01-23T08:02:27.436Z,119.10
2019-01-23T08:03:32.477Z,126.47
2019-01-23T08:04:37.621Z,123.47
2019-01-23T08:05:42.753Z,128.15
2019-01-23T08:06:47.753Z,112.57
2019-01-23T08:07:56.277Z,127.90
2019-01-23T08:09:01.336Z,121.17
2019-01-23T08:10:08.073Z,131.37
2019-01-23T08:11:13.180Z,122.90
2019-01-23T08:12:18.480Z,114.20
2019-01-23T08:13:24.240Z,127.62
2019-01-23T08:14:29.782Z,124.62
2019-01-23T08:15:37.158Z,125.53
2019-01-23T08:16:42.465Z,120.20
2019-01-23T08:17:47.763Z,118.47
2019-01-23T08:18:52.675Z,120.75
2019-01-23T08:19:57.817Z,122.28
2019-01-23T08:21:04.273Z,116.77
2019-01-23T08:22:09.442Z,121.00
2019-01-23T08:23:15.770Z,119.62
2019-01-23T08:24:21.064Z,115.25
2019-01-23T08:25:26.607Z,115.70
2019-01-23T08:26:32.010Z,112.80
2019-01-23T08:27:37.048Z,127.22
2019-01-23T08:28:42.126Z,117.40
2019-01-23T08:29:47.259Z,121.07
2019-01-23T08:30:52.441Z,117.22
2019-01-23T08:31:57.429Z,125.78
2019-01-23T08:33:02.983Z,120.05
2019-01-23T08:34:07.942Z,129.10
2019-01-23T08:35:13.324Z,120.02
2019-01-23T08:36:20.689Z,155.82
2019-01-23T08:37:25.751Z,135.80
2019-01-23T08:38:31.038Z,117.37
2019-01-23T08:39:37.405Z,117.13
2019-01-23T08:40:42.885Z,118.25
2019-01-23T08:41:48.247Z,118.70
2019-01-23T08:42:54.850Z,109.22
2019-01-23T08:44:00.231Z,103.22
2019-01-23T08:45:06.674Z,105.83
2019-01-23T08:46:12.186Z,106.30
2019-01-23T08:47:17.166Z,110.78
2019-01-23T08:48:22.430Z,110.37
2019-01-23T08:49:28.496Z,116.77
2019-01-23T08:50:44.754Z,103.00
2019-01-23T08:51:50.239Z,113.05
2019-01-23T08:52:55.286Z,116.05
2019-01-23T08:54:00.519Z,109.75
2019-01-23T08:55:06.153Z,116.95
2019-01-23T08:56:11.284Z,117.62
2019-01-23T08:57:16.287Z,109.85
2019-01-23T08:58:21.503Z,108.85
2019-01-23T08:59:26.586Z,105.55
2019-01-23T09:00:32.147Z,116.37
2019-01-23T09:01:37.198Z,113.92
2019-01-23T09:02:42.484Z,104.95
2019-01-23T09:03:49.368Z,118.72
2019-01-23T09:04:56.217Z,109.27
2019-01-23T09:06:01.492Z,108.83
2019-01-23T09:07:08.230Z,112.75
2019-01-23T09:08:13.494Z,108.70
2019-01-23T09:09:21.100Z,106.30
2019-01-23T09:10:26.457Z,109.67
2019-01-23T09:11:31.549Z,103.80
2019-01-23T09:12:36.548Z,103.15
2019-01-23T09:13:41.642Z,101.15
2019-01-23T09:14:46.722Z,96.15
2019-01-23T09:15:51.809Z,99.37
2019-01-23T09:16:56.909Z,100.80
2019-01-23T09:18:02.063Z,95.95
2019-01-23T09:19:07.517Z,93.58
2019-01-23T09:20:13.450Z,101.27
2019-01-23T09:21:18.534Z,98.72
2019-01-23T09:22:23.759Z,96.72
2019-01-23T09:23:28.975Z,92.65
2019-01-23T09:24:34.472Z,87.78
2019-01-23T09:25:39.542Z,92.57
2019-01-23T09:26:44.576Z,101.30
2019-01-23T09:27:51.102Z,101.40
2019-01-23T09:28:56.009Z,105.52
2019-01-23T09:30:01.401Z,87.97
2019-01-23T09:31:55.868Z,88.00
2019-01-23T09:34:00.360Z,89.95
2019-01-23T09:35:32.041Z,89.45
2019-01-23T09:37:36.036Z,93.27
2019-01-23T09:39:15.104Z,92.78
2019-01-23T09:40:38.712Z,87.35
2019-01-23T09:42:14.544Z,79.10
2019-01-23T09:44:02.227Z,84.45
2019-01-23T09:45:42.576Z,75.97
2019-01-23T09:47:10.855Z,84.58
2019-01-23T09:48:30.880Z,80.00
2019-01-23T09:50:15.677Z,83.97
2019-01-23T09:51:56.305Z,78.78
2019-01-23T09:53:32.546Z,80.22
2019-01-23T09:54:38.128Z,79.15
2019-01-23T09:55:44.469Z,81.28
2019-01-23T09:56:50.788Z,86.35
2019-01-23T09:57:59.185Z,85.80
2019-01-23T09:59:04.308Z,82.27
2019-01-23T10:00:13.746Z,81.82
2019-01-23T10:01:18.967Z,88.70
2019-01-23T10:02:23.909Z,88.95
2019-01-23T10:03:28.946Z,81.50
2019-01-23T10:04:35.554Z,79.85
2019-01-23T10:05:43.345Z,74.40
2019-01-23T10:06:48.254Z,70.85
2019-01-23T10:07:53.463Z,80.42
2019-01-23T10:08:58.736Z,88.25
2019-01-23T10:10:03.781Z,81.97
2019-01-23T10:11:10.385Z,77.78
2019-01-23T10:12:15.675Z,79.27
2019-01-23T10:13:22.406Z,76.37
2019-01-23T10:14:27.723Z,74.95
2019-01-23T10:16:05.328Z,75.60
2019-01-23T10:17:10.773Z,82.45
2019-01-23T10:18:16.319Z,73.57
2019-01-23T10:19:23.256Z,69.53
2019-01-23T10:20:30.392Z,72.35
2019-01-23T10:21:35.806Z,68.95
2019-01-23T10:22:40.934Z,71.37
2019-01-23T10:23:49.172Z,70.97
2019-01-23T10:24:54.472Z,72.85
2019-01-23T10:25:59.838Z,68.92
2019-01-23T10:27:05.224Z,71.37
2019-01-23T10:28:10.300Z,71.87
2019-01-23T10:29:17.791Z,70.47
2019-01-23T10:30:23.202Z,76.35
2019-01-23T10:31:28.540Z,72.82
2019-01-23T10:32:33.893Z,66.40
2019-01-23T10:33:39.062Z,69.62
2019-01-23T10:34:44.174Z,71.75
2019-01-23T10:35:49.385Z,76.25
2019-01-23T10:36:54.753Z,67.67
2019-01-23T10:37:59.879Z,71.35
2019-01-23T10:39:07.453Z,68.12
2019-01-23T10:40:16.850Z,69.67
2019-01-23T10:41:25.649Z,64.07
2019-01-23T10:42:33.381Z,67.72
2019-01-23T10:43:40.129Z,70.32
2019-01-23T10:44:45.254Z,85.30
2019-01-23T10:45:50.771Z,64.67
2019-01-23T10:46:55.996Z,61.25
2019-01-23T10:48:01.153Z,68.97
2019-01-23T10:49:06.507Z,77.00
2019-01-23T10:50:14.460Z,73.07
2019-01-23T10:51:19.810Z,63.58
2019-01-23T10:52:25.157Z,88.97
2019-01-23T10:53:32.862Z,80.53
2019-01-23T10:54:42.444Z,83.55
2019-01-23T10:55:47.398Z,61.15
2019-01-23T10:56:53.601Z,62.53
2019-01-23T10:58:01.224Z,65.22
2019-01-23T10:59:06.495Z,63.48
2019-01-23T11:00:14.979Z,61.95
2019-01-23T11:01:20.405Z,57.03
2019-01-23T11:02:25.626Z,63.58
2019-01-23T11:03:30.893Z,64.55
2019-01-23T11:04:37.096Z,63.48
2019-01-23T11:05:42.527Z,79.92
2019-01-23T11:06:47.822Z,64.72
2019-01-23T11:07:53.086Z,62.20
2019-01-23T11:08:58.440Z,63.92
2019-01-23T11:10:03.785Z,63.78
2019-01-23T11:11:10.367Z,58.95
2019-01-23T11:12:15.587Z,61.75
2019-01-23T11:13:20.881Z,64.87
2019-01-23T11:14:26.145Z,55.45
2019-01-23T11:15:31.485Z,63.23
2019-01-23T11:16:39.394Z,70.37
2019-01-23T11:17:44.915Z,65.03
2019-01-23T11:18:50.299Z,55.28
2019-01-23T11:19:55.656Z,60.58
2019-01-23T11:21:01.439Z,54.00
2019-01-23T11:22:07.201Z,55.80
2019-01-23T11:23:12.690Z,47.30
2019-01-23T11:24:18.218Z,53.15
2019-01-23T11:25:23.543Z,54.75
2019-01-23T11:26:28.768Z,59.05
2019-01-23T11:27:34.037Z,58.90
2019-01-23T11:28:42.363Z,55.28
2019-01-23T11:29:47.517Z,56.33
2019-01-23T11:30:53.216Z,55.95
2019-01-23T11:31:58.812Z,54.60
2019-01-23T11:33:04.289Z,48.83
2019-01-23T11:34:09.735Z,49.88
2019-01-23T11:35:15.697Z,55.60
2019-01-23T11:36:21.088Z,58.48
2019-01-23T11:37:26.204Z,52.88
2019-01-23T11:38:31.665Z,47.27
2019-01-23T11:39:36.944Z,52.17
2019-01-23T11:40:42.325Z,47.38
2019-01-23T11:41:47.540Z,41.35
2019-01-23T11:42:52.709Z,40.52
2019-01-23T11:43:57.956Z,47.03
2019-01-23T11:45:04.030Z,43.58
2019-01-23T11:46:09.173Z,51.13
2019-01-23T11:47:14.344Z,42.62
2019-01-23T11:48:19.683Z,39.92
2019-01-23T11:49:25.145Z,42.43
2019-01-23T11:50:30.360Z,44.65
2019-01-23T11:51:35.662Z,40.00
2019-01-23T11:52:40.851Z,43.98
2019-01-23T11:53:46.027Z,42.00
2019-01-23T11:54:51.196Z,38.95
2019-01-23T11:55:56.612Z,45.52
2019-01-23T11:57:01.771Z,40.00
2019-01-23T11:58:07.029Z,39.65
2019-01-23T11:59:12.282Z,39.40
2019-01-23T12:00:19.951Z,39.70
2019-01-23T12:01:27.669Z,37.60
2019-01-23T12:02:33.875Z,40.45
2019-01-23T12:03:38.962Z,39.35
2019-01-23T12:04:44.055Z,36.42
2019-01-23T12:05:49.230Z,32.83
2019-01-23T12:06:54.543Z,36.23
2019-01-23T12:08:00.006Z,39.88
2019-01-23T12:09:08.605Z,35.38
2019-01-23T12:10:16.675Z,35.85
2019-01-23T12:11:22.565Z,38.13
2019-01-23T12:12:28.126Z,38.30
2019-01-23T12:13:33.256Z,35.80
2019-01-23T12:14:38.478Z,36.33
2019-01-23T12:15:43.757Z,34.90
2019-01-23T12:16:48.968Z,34.90
2019-01-23T12:17:55.004Z,33.02
2019-01-23T12:18:59.959Z,33.98
2019-01-23T12:20:06.053Z,37.42
2019-01-23T12:21:11.449Z,38.88
2019-01-23T12:22:16.637Z,37.45
2019-01-23T12:23:22.097Z,36.42
2019-01-23T12:24:27.633Z,34.55
2019-01-23T12:25:38.827Z,36.08
2019-01-23T12:26:44.140Z,37.13
2019-01-23T12:27:49.329Z,36.25
2019-01-23T12:28:54.668Z,33.65
2019-01-23T12:29:59.996Z,35.90
2019-01-23T12:31:05.127Z,37.33
2019-01-23T12:32:10.414Z,34.15
2019-01-23T12:33:15.649Z,36.90
2019-01-23T12:34:21.319Z,32.35
2019-01-23T12:35:26.782Z,33.33
2019-01-23T12:36:31.910Z,37.10
2019-01-23T12:37:37.144Z,31.70
2019-01-23T12:38:42.169Z,34.00
2019-01-23T12:39:47.665Z,37.23
2019-01-23T12:40:52.717Z,33.35
2019-01-23T12:41:57.924Z,39.18
2019-01-23T12:43:03.144Z,38.65
2019-01-23T12:44:08.695Z,36.93
2019-01-23T12:45:19.881Z,35.50
2019-01-23T12:46:24.998Z,33.98
2019-01-23T12:47:30.121Z,35.73
2019-01-23T12:48:35.277Z,32.13
2019-01-23T12:49:43.366Z,33.85
2019-01-23T12:50:48.626Z,36.75
2019-01-23T12:51:53.739Z,36.73
2019-01-23T12:53:00.090Z,37.93
2019-01-23T12:54:05.247Z,35.13
2019-01-23T12:55:10.938Z,37.93
2019-01-23T12:56:18.452Z,34.15
2019-01-23T12:57:24.262Z,34.73
2019-01-23T12:58:29.280Z,32.90
2019-01-23T12:59:34.699Z,34.33
2019-01-23T13:00:40.137Z,36.05
2019-01-23T13:01:46.957Z,34.90
2019-01-23T13:02:52.584Z,30.15
2019-01-23T13:03:57.848Z,34.03
2019-01-23T13:05:04.369Z,35.20
2019-01-23T13:06:09.748Z,34.83
2019-01-23T13:07:15.580Z,32.90
2019-01-23T13:08:20.961Z,31.37
2019-01-23T13:09:26.326Z,34.13
2019-01-23T13:10:31.908Z,34.38
2019-01-23T13:11:37.338Z,31.45
2019-01-23T13:12:42.670Z,32.93
2019-01-23T13:13:48.169Z,33.65
2019-01-23T13:14:53.572Z,30.60
2019-01-23T13:15:59.143Z,32.50
2019-01-23T13:17:04.926Z,36.88
2019-01-23T13:18:10.557Z,39.45
2019-01-23T13:19:15.816Z,44.45
2019-01-23T13:20:22.637Z,35.58
2019-01-23T13:21:28.195Z,38.92
2019-01-23T13:22:33.685Z,37.15
2019-01-23T13:23:39.105Z,30.60
2019-01-23T13:24:44.486Z,36.13
2019-01-23T13:25:49.854Z,37.35
2019-01-23T13:26:55.360Z,47.03
2019-01-23T13:28:02.615Z,45.12
2019-01-23T13:29:07.728Z,46.25
2019-01-23T13:30:16.247Z,46.48
2019-01-23T13:31:21.548Z,38.40
2019-01-23T13:32:28.803Z,37.90
2019-01-23T13:33:34.601Z,37.60
2019-01-23T13:34:40.084Z,35.28
2019-01-23T13:35:45.276Z,39.73
2019-01-23T13:36:50.510Z,37.08
2019-01-23T13:37:55.887Z,37.00
2019-01-23T13:39:01.028Z,39.20
2019-01-23T13:40:10.345Z,35.95
2019-01-23T13:41:15.726Z,36.10
2019-01-23T13:42:20.900Z,37.17
2019-01-23T13:43:26.244Z,38.10
2019-01-23T13:44:31.307Z,37.55
2019-01-23T13:45:36.495Z,38.20
2019-01-23T13:46:42.169Z,39.25
2019-01-23T13:47:47.619Z,39.30
2019-01-23T13:48:53.234Z,35.52
2019-01-23T13:49:58.568Z,38.80
2019-01-23T13:51:03.697Z,36.05
2019-01-23T13:52:09.137Z,41.53
2019-01-23T13:53:14.489Z,37.20
2019-01-23T13:54:19.596Z,38.00
2019-01-23T13:55:25.821Z,43.78